createdAt,value
2023-04-24T00:01:38.122Z,99980.38
2023-04-24T00:04:05.556Z,99971.31
2023-04-24T00:06:35.476Z,99961.44
2023-04-24T00:09:02.645Z,99963.00
2023-04-24T00:11:29.964Z,99972.97
2023-04-24T00:13:57.685Z,99955.91
2023-04-24T00:16:24.966Z,99951.69
2023-04-24T00:18:53.958Z,99936.84
2023-04-24T00:21:21.929Z,99944.50
2023-04-24T00:23:49.104Z,99947.28
2023-04-24T00:26:16.270Z,99947.53
2023-04-24T00:28:43.125Z,99941.59
2023-04-24T00:31:10.063Z,99940.09
2023-04-24T00:33:37.479Z,99940.19
2023-04-24T00:36:04.611Z,99937.19
2023-04-24T00:38:32.978Z,99936.28
2023-04-24T00:41:02.309Z,99936.50
2023-04-24T00:43:29.462Z,99919.44
2023-04-24T00:45:56.663Z,99923.47
2023-04-24T00:48:25.352Z,99921.06
2023-04-24T00:50:52.144Z,99893.31
2023-04-24T00:53:19.066Z,99908.41
2023-04-24T00:55:46.518Z,99911.53
2023-04-24T00:58:13.895Z,99917.09
2023-04-24T01:00:40.966Z,99920.88
2023-04-24T01:03:08.986Z,99913.56
2023-04-24T01:05:36.119Z,99922.59
2023-04-24T01:08:05.608Z,99916.25
2023-04-24T01:10:35.588Z,99922.59
2023-04-24T01:13:02.803Z,99918.84
2023-04-24T01:15:30.270Z,99918.50
2023-04-24T01:17:57.489Z,99891.09
2023-04-24T01:20:27.227Z,99915.00
2023-04-24T01:22:56.202Z,99926.22
2023-04-24T01:25:27.279Z,99920.31
2023-04-24T01:27:57.211Z,99919.66
2023-04-24T01:30:24.423Z,99913.19
2023-04-24T01:32:51.715Z,99913.19
2023-04-24T01:35:18.852Z,99910.31
2023-04-24T01:37:46.095Z,99911.94
2023-04-24T01:40:13.633Z,99904.16
2023-04-24T01:42:42.661Z,99908.72
2023-04-24T01:45:12.313Z,99897.34
2023-04-24T01:47:39.392Z,99896.88
2023-04-24T01:50:07.403Z,99896.56
2023-04-24T01:52:34.577Z,99888.53
2023-04-24T01:55:02.745Z,99899.47
2023-04-24T01:57:31.659Z,99903.00
2023-04-24T01:59:58.981Z,99904.63
2023-04-24T02:02:28.835Z,99903.28
2023-04-24T02:04:55.854Z,99900.03
2023-04-24T02:07:22.877Z,99911.03
2023-04-24T02:09:50.054Z,99890.16
2023-04-24T02:12:19.661Z,99887.97
2023-04-24T02:14:46.573Z,99882.22
2023-04-24T02:17:14.588Z,99880.69
2023-04-24T02:19:41.862Z,99878.91
2023-04-24T02:22:08.924Z,99880.88
2023-04-24T02:24:35.859Z,99879.66
2023-04-24T02:27:04.028Z,99869.34
2023-04-24T02:29:31.748Z,99881.09
2023-04-24T02:31:58.752Z,99874.72
2023-04-24T02:34:25.844Z,99873.47
2023-04-24T02:36:54.967Z,99870.75
2023-04-24T02:39:22.368Z,99859.38
2023-04-24T02:41:49.441Z,99874.88
2023-04-24T02:44:16.280Z,99872.31
2023-04-24T02:46:43.282Z,99869.88
2023-04-24T02:49:13.190Z,99874.34
2023-04-24T02:51:42.426Z,99862.75
2023-04-24T02:54:11.230Z,99874.31
2023-04-24T02:56:38.329Z,99871.66
2023-04-24T02:59:05.326Z,99865.06
2023-04-24T03:01:32.670Z,99859.84
2023-04-24T03:03:59.873Z,99869.53
2023-04-24T03:06:30.974Z,99868.78
2023-04-24T03:08:58.519Z,99875.84
2023-04-24T03:11:25.601Z,99881.41
2023-04-24T03:13:52.654Z,99879.47
2023-04-24T03:16:19.619Z,99891.25
2023-04-24T03:18:46.865Z,99880.28
2023-04-24T03:21:14.996Z,99887.03
2023-04-24T03:23:41.895Z,99881.81
2023-04-24T03:26:08.780Z,99875.06
2023-04-24T03:28:35.749Z,99881.34
2023-04-24T03:31:04.319Z,99882.97
2023-04-24T03:33:31.442Z,99873.47
2023-04-24T03:35:58.428Z,99876.59
2023-04-24T03:38:25.368Z,99857.16
2023-04-24T03:40:52.400Z,99879.66
2023-04-24T03:43:19.325Z,99879.66
2023-04-24T03:45:46.304Z,99871.63
2023-04-24T03:48:13.280Z,99877.34
2023-04-24T03:50:40.602Z,99877.81
2023-04-24T03:53:07.533Z,99866.72
2023-04-24T03:55:34.347Z,99874.25
2023-04-24T03:58:01.139Z,99870.84
2023-04-24T04:00:28.582Z,99873.44
2023-04-24T04:02:55.586Z,99867.28
2023-04-24T04:05:22.710Z,99864.81
2023-04-24T04:07:49.626Z,99868.72
2023-04-24T04:10:18.406Z,99862.88
2023-04-24T04:12:45.369Z,99866.97
2023-04-24T04:15:12.376Z,99864.34
2023-04-24T04:17:39.548Z,99860.13
2023-04-24T04:20:11.300Z,99869.59
2023-04-24T04:22:38.970Z,99869.25
2023-04-24T04:25:07.927Z,99859.31
2023-04-24T04:27:35.843Z,99850.56
2023-04-24T04:30:05.921Z,99868.72
2023-04-24T04:32:34.570Z,99871.72
2023-04-24T04:35:04.954Z,99872.66
2023-04-24T04:37:32.606Z,99879.94
2023-04-24T04:39:59.543Z,99867.84
2023-04-24T04:42:28.179Z,99877.00
2023-04-24T04:44:55.408Z,99877.06
2023-04-24T04:47:26.071Z,99863.41
2023-04-24T04:49:53.304Z,99856.25
2023-04-24T04:52:20.808Z,99876.59
2023-04-24T04:54:47.945Z,99873.91
2023-04-24T04:57:14.899Z,99881.84
2023-04-24T04:59:42.555Z,99890.78
2023-04-24T05:02:10.253Z,99885.47
2023-04-24T05:04:37.586Z,99880.88
2023-04-24T05:07:05.829Z,99879.16
2023-04-24T05:09:33.531Z,99879.53
2023-04-24T05:12:02.612Z,99868.78
2023-04-24T05:14:29.903Z,99873.31
2023-04-24T05:16:57.268Z,99872.53
2023-04-24T05:19:26.286Z,99869.72
2023-04-24T05:21:53.305Z,99870.31
2023-04-24T05:24:20.630Z,99862.78
2023-04-24T05:26:48.294Z,99871.81
2023-04-24T05:29:15.239Z,99877.16
2023-04-24T05:31:42.183Z,99875.75
2023-04-24T05:34:09.177Z,99871.78
2023-04-24T05:36:36.084Z,99874.25
2023-04-24T05:39:03.178Z,99876.69
2023-04-24T05:41:30.133Z,99882.47
2023-04-24T05:43:57.329Z,99880.88
2023-04-24T05:46:24.574Z,99881.13
2023-04-24T05:48:51.534Z,99882.72
2023-04-24T05:51:18.645Z,99884.72
2023-04-24T05:53:45.751Z,99882.63
2023-04-24T05:56:13.289Z,99869.28
2023-04-24T05:58:40.914Z,99877.47
2023-04-24T06:01:07.892Z,99872.41
2023-04-24T06:03:35.356Z,99872.16
2023-04-24T06:06:02.470Z,99877.94
2023-04-24T06:08:29.185Z,99865.09
2023-04-24T06:10:56.205Z,99877.53
2023-04-24T06:13:23.121Z,99880.16
2023-04-24T06:15:49.990Z,99876.41
2023-04-24T06:18:20.921Z,99882.03
2023-04-24T06:20:48.250Z,99877.31
2023-04-24T06:23:15.176Z,99880.16
2023-04-24T06:25:42.313Z,99891.53
2023-04-24T06:28:09.179Z,99890.31
2023-04-24T06:30:36.176Z,99886.19
2023-04-24T06:33:12.955Z,99890.03
2023-04-24T06:35:46.169Z,99893.63
2023-04-24T06:38:13.264Z,99885.25
2023-04-24T06:40:40.789Z,99882.44
2023-04-24T06:43:07.956Z,99890.03
2023-04-24T06:45:35.079Z,99881.28
2023-04-24T06:48:02.073Z,99893.72
2023-04-24T06:50:29.015Z,99899.00
2023-04-24T06:52:55.919Z,99906.63
2023-04-24T06:55:22.853Z,99884.25
2023-04-24T06:57:49.927Z,99883.06
2023-04-24T07:00:19.362Z,99900.97
2023-04-24T07:02:46.236Z,99887.53
2023-04-24T07:05:14.023Z,99902.91
2023-04-24T07:07:41.622Z,99894.25
2023-04-24T07:10:09.915Z,99905.72
2023-04-24T07:12:37.112Z,99900.78
2023-04-24T07:15:04.572Z,99901.91
2023-04-24T07:17:31.593Z,99902.06
2023-04-24T07:19:59.111Z,99893.38
2023-04-24T07:22:26.335Z,99903.13
2023-04-24T07:24:53.159Z,99890.47
2023-04-24T07:27:20.064Z,99885.41
2023-04-24T07:29:47.135Z,99897.69
2023-04-24T07:32:14.297Z,99888.78
2023-04-24T07:34:41.690Z,99902.94
2023-04-24T07:37:08.770Z,99909.63
2023-04-24T07:39:35.958Z,99914.72
2023-04-24T07:42:03.488Z,99909.72
2023-04-24T07:44:30.543Z,99909.47
2023-04-24T07:46:58.042Z,99922.88
2023-04-24T07:49:29.099Z,99916.41
2023-04-24T07:51:56.251Z,99921.69
2023-04-24T07:54:23.118Z,99930.66
2023-04-24T07:56:50.923Z,99935.13
2023-04-24T07:59:17.718Z,99922.28
2023-04-24T08:01:44.713Z,99933.59
2023-04-24T08:04:11.955Z,99942.59
2023-04-24T08:06:38.989Z,99942.09
2023-04-24T08:09:06.275Z,99945.06
2023-04-24T08:11:33.261Z,99953.03
2023-04-24T08:14:00.443Z,99953.16
2023-04-24T08:16:27.705Z,99949.13
2023-04-24T08:18:54.702Z,99962.81
2023-04-24T08:21:22.273Z,99955.59
2023-04-24T08:23:49.132Z,99958.34
2023-04-24T08:26:16.201Z,99933.03
2023-04-24T08:28:43.866Z,99957.44
2023-04-24T08:31:10.879Z,99959.03
2023-04-24T08:33:37.862Z,99945.16
2023-04-24T08:36:06.881Z,99956.47
2023-04-24T08:38:35.094Z,99945.63
2023-04-24T08:41:05.081Z,99962.16
2023-04-24T08:43:34.444Z,99965.31
2023-04-24T08:46:01.990Z,99962.09
2023-04-24T08:48:31.564Z,99974.06
2023-04-24T08:51:00.257Z,99976.31
2023-04-24T08:53:27.767Z,99969.78
2023-04-24T08:55:57.187Z,99975.38
2023-04-24T08:58:27.786Z,99972.59
2023-04-24T09:00:58.701Z,99975.66
2023-04-24T09:03:28.452Z,99975.19
2023-04-24T09:05:57.085Z,99975.09
2023-04-24T09:08:26.275Z,99970.38
2023-04-24T09:10:53.348Z,99969.63
2023-04-24T09:13:22.007Z,99964.03
2023-04-24T09:15:49.191Z,99961.47
2023-04-24T09:18:16.203Z,99972.53
2023-04-24T09:21:03.527Z,99964.47
2023-04-24T09:23:32.063Z,99964.75
2023-04-24T09:26:01.223Z,99980.78
2023-04-24T09:28:33.579Z,99986.69
2023-04-24T09:31:09.381Z,99983.69
2023-04-24T09:33:36.864Z,99990.91
2023-04-24T09:36:04.593Z,99990.75
2023-04-24T09:38:39.514Z,99993.44
2023-04-24T09:41:10.004Z,99991.69
2023-04-24T09:43:37.048Z,100000.97
2023-04-24T09:46:08.747Z,100000.31
2023-04-24T09:48:38.163Z,100006.72
2023-04-24T09:51:13.903Z,99999.53
2023-04-24T09:53:41.498Z,99998.78
2023-04-24T09:56:14.108Z,99998.13
2023-04-24T09:58:41.264Z,100002.66
2023-04-24T10:01:08.587Z,100000.28
2023-04-24T10:03:36.079Z,100014.00
2023-04-24T10:06:09.782Z,100000.81
2023-04-24T10:08:38.789Z,100007.59
2023-04-24T10:11:06.105Z,99986.75
2023-04-24T10:13:36.940Z,100003.91
2023-04-24T10:16:05.614Z,100010.50
2023-04-24T10:18:33.852Z,100011.41
2023-04-24T10:21:02.822Z,100002.81
2023-04-24T10:23:31.498Z,100008.19
2023-04-24T10:25:59.579Z,100007.09
2023-04-24T10:28:27.970Z,100004.72
2023-04-24T10:30:56.599Z,100012.66
2023-04-24T10:33:24.863Z,100014.97
2023-04-24T10:35:53.056Z,100023.94
2023-04-24T10:38:31.529Z,100016.22
2023-04-24T10:41:17.034Z,100024.75
2023-04-24T10:43:44.738Z,100022.19
2023-04-24T10:46:11.939Z,100026.97
2023-04-24T10:48:44.987Z,100024.75
2023-04-24T10:51:14.949Z,100036.38
2023-04-24T10:53:41.936Z,100023.22
2023-04-24T10:56:14.785Z,100022.38
2023-04-24T10:58:53.561Z,100027.31
2023-04-24T11:01:28.361Z,100029.16
2023-04-24T11:04:00.101Z,100031.88
2023-04-24T11:06:36.171Z,100030.16
2023-04-24T11:09:08.625Z,100024.69
2023-04-24T11:11:41.777Z,100040.72
2023-04-24T11:14:09.681Z,100032.69
2023-04-24T11:16:39.422Z,100036.19
2023-04-24T11:19:06.549Z,100036.53
2023-04-24T11:21:44.714Z,100031.41
2023-04-24T11:24:37.138Z,100019.53
2023-04-24T11:27:05.675Z,100030.72
2023-04-24T11:29:48.264Z,100031.78
2023-04-24T11:32:28.210Z,100020.06
2023-04-24T11:35:01.696Z,100023.13
2023-04-24T11:37:39.779Z,100036.00
2023-04-24T11:40:17.536Z,100036.94
2023-04-24T11:42:46.836Z,100037.47
2023-04-24T11:45:16.740Z,100044.16
2023-04-24T11:47:44.850Z,100039.00
2023-04-24T11:50:18.430Z,100049.03
2023-04-24T11:52:50.200Z,100055.47
2023-04-24T11:55:20.082Z,100042.25
2023-04-24T11:57:49.489Z,100045.94
2023-04-24T12:00:18.520Z,100045.91
2023-04-24T12:02:46.215Z,100047.56
2023-04-24T12:05:24.885Z,100032.53
2023-04-24T12:07:51.978Z,100041.97
2023-04-24T12:10:27.242Z,100035.09
2023-04-24T12:12:58.764Z,100038.72
2023-04-24T12:15:26.566Z,100046.78
2023-04-24T12:17:54.660Z,100038.75
2023-04-24T12:20:32.677Z,100048.22
2023-04-24T12:23:01.697Z,100049.59
2023-04-24T12:25:31.312Z,100048.16
2023-04-24T12:28:07.348Z,100052.41
2023-04-24T12:30:51.541Z,100029.34
2023-04-24T12:33:22.999Z,100062.59
2023-04-24T12:35:55.114Z,100073.59
2023-04-24T12:38:27.568Z,100074.03
2023-04-24T12:41:10.594Z,100071.91
2023-04-24T12:43:38.278Z,100065.56
2023-04-24T12:46:06.216Z,100063.41
2023-04-24T12:48:33.590Z,100062.53
2023-04-24T12:51:04.019Z,100059.16
2023-04-24T12:53:32.424Z,100053.88
2023-04-24T12:55:59.675Z,100057.84
2023-04-24T12:58:26.971Z,100053.25
2023-04-24T13:00:54.426Z,100051.97
2023-04-24T13:03:21.774Z,100070.91
2023-04-24T13:05:48.825Z,100076.84
2023-04-24T13:08:15.842Z,100084.44
2023-04-24T13:10:42.972Z,100080.50
2023-04-24T13:13:10.307Z,100094.84
2023-04-24T13:15:37.564Z,100094.66
2023-04-24T13:18:04.601Z,100088.84
2023-04-24T13:20:32.580Z,100081.97
2023-04-24T13:23:00.555Z,100094.16
2023-04-24T13:25:28.159Z,100076.59
2023-04-24T13:27:55.251Z,100083.66
2023-04-24T13:30:22.474Z,100086.16
2023-04-24T13:32:49.309Z,100082.94
2023-04-24T13:35:16.382Z,100069.81
2023-04-24T13:37:43.276Z,100073.28
2023-04-24T13:40:11.116Z,100077.53
2023-04-24T13:42:38.259Z,100072.06
2023-04-24T13:45:21.285Z,100075.47
2023-04-24T13:47:52.305Z,100076.53
2023-04-24T13:50:19.587Z,100072.56
2023-04-24T13:52:46.514Z,100069.78
2023-04-24T13:55:13.648Z,100082.97
2023-04-24T13:57:40.840Z,100079.09
2023-04-24T14:00:11.948Z,100078.06
2023-04-24T14:02:40.743Z,100071.84
2023-04-24T14:05:07.944Z,100083.59
2023-04-24T14:07:35.141Z,100080.41
2023-04-24T14:10:02.044Z,100084.81
2023-04-24T14:12:29.258Z,100089.97
2023-04-24T14:14:56.167Z,100096.09
2023-04-24T14:17:23.669Z,100093.25
2023-04-24T14:19:51.647Z,100091.53
2023-04-24T14:22:18.877Z,100093.50
2023-04-24T14:24:45.893Z,100088.13
2023-04-24T14:27:15.905Z,100094.44
2023-04-24T14:29:42.822Z,100089.56
2023-04-24T14:32:10.239Z,100094.69
2023-04-24T14:34:37.269Z,100097.16
2023-04-24T14:37:04.098Z,100078.81
2023-04-24T14:39:31.197Z,100107.63
2023-04-24T14:41:58.237Z,100106.56
2023-04-24T14:44:25.337Z,100108.25
2023-04-24T14:46:52.352Z,100110.94
2023-04-24T14:49:19.353Z,100111.19
2023-04-24T14:51:46.341Z,100109.47
2023-04-24T14:54:13.713Z,100123.34
2023-04-24T14:56:42.303Z,100125.78
2023-04-24T14:59:09.551Z,100120.59
2023-04-24T15:01:36.505Z,100148.53
2023-04-24T15:04:03.655Z,100153.16
2023-04-24T15:06:32.731Z,100155.72
2023-04-24T15:08:59.869Z,100169.94
2023-04-24T15:11:27.293Z,100168.91
2023-04-24T15:13:54.349Z,100175.38
2023-04-24T15:16:22.219Z,100180.50
2023-04-24T15:18:53.514Z,100187.22
2023-04-24T15:21:20.588Z,100201.47
2023-04-24T15:23:48.999Z,100200.97
2023-04-24T15:26:16.126Z,100209.34
2023-04-24T15:28:44.123Z,100216.44
2023-04-24T15:31:11.256Z,100208.38
2023-04-24T15:33:38.073Z,100228.66
2023-04-24T15:36:08.271Z,100236.91
2023-04-24T15:38:35.359Z,100239.19
2023-04-24T15:41:02.561Z,100240.50
2023-04-24T15:43:32.216Z,100246.59
2023-04-24T15:45:59.159Z,100244.50
2023-04-24T15:48:26.123Z,100255.66
2023-04-24T15:50:53.157Z,100267.41
2023-04-24T15:53:22.692Z,100260.06
2023-04-24T15:55:50.677Z,100270.50
2023-04-24T15:58:18.455Z,100266.25
2023-04-24T16:00:45.580Z,100278.19
2023-04-24T16:03:13.376Z,100284.56
2023-04-24T16:05:40.718Z,100283.75
2023-04-24T16:08:07.665Z,100292.59
2023-04-24T16:10:34.797Z,100290.44
2023-04-24T16:13:04.692Z,100292.41
2023-04-24T16:15:32.687Z,100300.91
2023-04-24T16:18:02.245Z,100298.72
2023-04-24T16:20:29.335Z,100308.00
2023-04-24T16:22:56.419Z,100308.00
2023-04-24T16:25:23.353Z,100317.47
2023-04-24T16:27:52.819Z,100324.72
2023-04-24T16:30:20.017Z,100317.72
2023-04-24T16:32:47.327Z,100314.53
2023-04-24T16:35:14.284Z,100310.63
2023-04-24T16:37:41.496Z,100310.66
2023-04-24T16:40:11.133Z,100314.38
2023-04-24T16:42:38.602Z,100314.78
2023-04-24T16:45:06.917Z,100316.28
2023-04-24T16:47:33.835Z,100324.31
2023-04-24T16:50:03.750Z,100331.50
2023-04-24T16:52:30.586Z,100326.41
2023-04-24T16:54:57.695Z,100331.44
2023-04-24T16:57:24.761Z,100330.63
2023-04-24T16:59:51.597Z,100333.94
2023-04-24T17:02:18.766Z,100335.38
2023-04-24T17:04:46.303Z,100331.44
2023-04-24T17:07:16.555Z,100328.72
2023-04-24T17:09:46.889Z,100329.88
2023-04-24T17:12:13.850Z,100330.69
2023-04-24T17:14:43.521Z,100330.63
2023-04-24T17:17:10.621Z,100333.56
2023-04-24T17:19:37.673Z,100325.19
2023-04-24T17:22:06.085Z,100329.47
2023-04-24T17:24:33.744Z,100330.28
2023-04-24T17:27:04.865Z,100326.16
2023-04-24T17:29:41.659Z,100329.41
2023-04-24T17:32:08.877Z,100317.66
2023-04-24T17:34:36.041Z,100322.91
2023-04-24T17:37:04.384Z,100321.97
2023-04-24T17:39:31.553Z,100323.88
2023-04-24T17:41:58.705Z,100328.94
2023-04-24T17:44:27.574Z,100329.59
2023-04-24T17:46:55.133Z,100326.66
2023-04-24T17:49:22.288Z,100317.41
2023-04-24T17:51:52.168Z,100327.63
2023-04-24T17:54:19.163Z,100326.47
2023-04-24T17:56:46.651Z,100328.44
2023-04-24T17:59:14.009Z,100325.09
2023-04-24T18:01:41.003Z,100328.81
2023-04-24T18:04:09.075Z,100334.19
2023-04-24T18:06:36.404Z,100326.91
2023-04-24T18:09:03.830Z,100326.88
2023-04-24T18:11:30.681Z,100338.53
2023-04-24T18:13:57.612Z,100337.28
2023-04-24T18:16:25.976Z,100342.09
2023-04-24T18:18:54.281Z,100339.28
2023-04-24T18:21:21.172Z,100339.94
2023-04-24T18:23:48.255Z,100345.63
2023-04-24T18:26:17.324Z,100347.06
2023-04-24T18:28:48.286Z,100343.25
2023-04-24T18:31:15.633Z,100361.22
2023-04-24T18:33:43.192Z,100352.28
2023-04-24T18:36:10.157Z,100348.44
2023-04-24T18:38:37.087Z,100351.94
2023-04-24T18:41:04.300Z,100350.53
2023-04-24T18:43:31.327Z,100354.44
2023-04-24T18:45:58.244Z,100359.22
2023-04-24T18:48:25.117Z,100362.63
2023-04-24T18:50:53.035Z,100365.22
2023-04-24T18:53:20.076Z,100377.31
2023-04-24T18:55:46.947Z,100375.91
2023-04-24T18:58:15.316Z,100369.25
2023-04-24T19:00:42.326Z,100375.91
2023-04-24T19:03:09.577Z,100380.16
2023-04-24T19:05:36.756Z,100373.34
2023-04-24T19:08:03.721Z,100382.22
2023-04-24T19:10:31.342Z,100384.50
2023-04-24T19:12:58.242Z,100382.50
2023-04-24T19:15:25.842Z,100363.94
2023-04-24T19:17:54.013Z,100388.78
2023-04-24T19:20:24.300Z,100396.88
2023-04-24T19:22:51.575Z,100386.56
2023-04-24T19:25:18.574Z,100393.25
2023-04-24T19:27:45.760Z,100392.72
2023-04-24T19:30:16.190Z,100393.69
2023-04-24T19:32:43.186Z,100387.81
2023-04-24T19:35:10.163Z,100397.50
2023-04-24T19:37:37.032Z,100395.28
2023-04-24T19:40:04.542Z,100403.22
2023-04-24T19:42:42.577Z,100398.50
2023-04-24T19:45:14.844Z,100391.31
2023-04-24T19:47:41.712Z,100397.63
2023-04-24T19:50:09.459Z,100399.91
2023-04-24T19:52:36.693Z,100392.88
2023-04-24T19:55:04.119Z,100393.19
2023-04-24T19:57:31.384Z,100395.31
2023-04-24T19:59:58.349Z,100399.84
2023-04-24T20:02:25.799Z,100393.56
2023-04-24T20:04:52.922Z,100394.22
2023-04-24T20:07:19.770Z,100389.72
2023-04-24T20:09:47.327Z,100392.88
2023-04-24T20:12:14.322Z,100400.34
2023-04-24T20:14:41.143Z,100397.44
2023-04-24T20:17:08.143Z,100361.94
2023-04-24T20:19:35.413Z,100387.19
2023-04-24T20:22:02.152Z,100407.78
2023-04-24T20:24:29.516Z,100407.41
2023-04-24T20:26:59.628Z,100410.63
2023-04-24T20:29:26.580Z,100403.53
2023-04-24T20:31:57.153Z,100405.00
2023-04-24T20:34:24.297Z,100413.34
2023-04-24T20:36:51.475Z,100411.56
2023-04-24T20:39:18.753Z,100413.44
2023-04-24T20:41:48.750Z,100414.22
2023-04-24T20:44:15.963Z,100421.13
2023-04-24T20:46:43.074Z,100412.94
2023-04-24T20:49:10.082Z,100430.00
2023-04-24T20:51:37.191Z,100422.50
2023-04-24T20:54:04.412Z,100417.81
2023-04-24T20:56:31.537Z,100429.69
2023-04-24T20:58:58.473Z,100427.56
2023-04-24T21:01:25.794Z,100426.59
2023-04-24T21:03:53.326Z,100427.59
2023-04-24T21:06:20.579Z,100429.91
2023-04-24T21:08:47.793Z,100421.97
2023-04-24T21:11:14.789Z,100422.94
2023-04-24T21:13:41.791Z,100421.41
2023-04-24T21:16:08.973Z,100418.63
2023-04-24T21:18:43.783Z,100420.97
2023-04-24T21:21:10.700Z,100416.19
2023-04-24T21:23:40.236Z,100427.00
2023-04-24T21:26:07.647Z,100427.44
2023-04-24T21:28:34.751Z,100423.03
2023-04-24T21:31:01.941Z,100408.44
2023-04-24T21:33:29.092Z,100406.50
2023-04-24T21:35:58.561Z,100420.91
2023-04-24T21:38:25.668Z,100418.16
2023-04-24T21:40:52.962Z,100415.97
2023-04-24T21:43:25.372Z,100423.38
2023-04-24T21:45:55.140Z,100424.09
2023-04-24T21:48:22.099Z,100424.84
2023-04-24T21:50:49.474Z,100430.19
2023-04-24T21:53:16.456Z,100425.16
2023-04-24T21:55:44.422Z,100425.28
2023-04-24T21:58:11.501Z,100419.47
2023-04-24T22:00:38.563Z,100432.97
2023-04-24T22:03:05.739Z,100429.19
2023-04-24T22:05:32.989Z,100426.44
2023-04-24T22:08:00.029Z,100425.44
2023-04-24T22:10:27.414Z,100420.88
2023-04-24T22:12:54.732Z,100424.25
2023-04-24T22:15:24.305Z,100432.16
2023-04-24T22:17:52.791Z,100429.19
2023-04-24T22:20:20.411Z,100428.34
2023-04-24T22:22:50.567Z,100436.88
2023-04-24T22:25:18.510Z,100439.69
2023-04-24T22:27:45.604Z,100438.19
2023-04-24T22:30:13.076Z,100425.69
2023-04-24T22:32:40.016Z,100446.22
2023-04-24T22:35:08.166Z,100434.59
2023-04-24T22:37:35.241Z,100442.97
2023-04-24T22:40:02.437Z,100445.84
2023-04-24T22:42:32.074Z,100454.19
2023-04-24T22:44:59.088Z,100450.81
2023-04-24T22:47:26.219Z,100461.38
2023-04-24T22:49:56.880Z,100456.25
2023-04-24T22:52:25.692Z,100458.81
2023-04-24T22:54:52.579Z,100454.19
2023-04-24T22:57:19.505Z,100456.56
2023-04-24T22:59:46.350Z,100455.91
2023-04-24T23:02:16.992Z,100455.63
2023-04-24T23:04:44.217Z,100457.53
2023-04-24T23:07:11.443Z,100462.91
2023-04-24T23:09:38.355Z,100461.69
2023-04-24T23:12:08.275Z,100461.69
2023-04-24T23:14:35.399Z,100465.41
2023-04-24T23:17:02.534Z,100466.97
2023-04-24T23:19:29.497Z,100463.50
2023-04-24T23:21:56.518Z,100467.25
2023-04-24T23:24:23.276Z,100465.00
2023-04-24T23:26:50.263Z,100478.50
2023-04-24T23:29:17.171Z,100485.50
2023-04-24T23:31:44.201Z,100475.53
2023-04-24T23:34:11.165Z,100488.28
2023-04-24T23:36:38.008Z,100494.09
2023-04-24T23:39:05.528Z,100484.63
2023-04-24T23:41:32.352Z,100489.69
2023-04-24T23:43:59.129Z,100480.63
2023-04-24T23:46:26.936Z,100497.00
2023-04-24T23:48:53.834Z,100483.53
2023-04-24T23:51:20.932Z,100491.78
2023-04-24T23:53:47.862Z,100491.41
2023-04-24T23:56:15.104Z,100496.72
2023-04-24T23:58:41.938Z,100496.06
